sensor_id;sensor_type;location;lat;lon;timestamp;temperature;humidity
53800;DHT22;39708;53.210;6.948;2022-09-12T00:01:09;13.10;99.90
53800;DHT22;39708;53.210;6.948;2022-09-12T00:03:35;13.10;99.90
53800;DHT22;39708;53.210;6.948;2022-09-12T00:06:14;13.20;99.90
53800;DHT22;39708;53.210;6.948;2022-09-12T00:08:40;13.00;99.90
53800;DHT22;39708;53.210;6.948;2022-09-12T00:11:10;13.30;99.90
53800;DHT22;39708;53.210;6.948;2022-09-12T00:13:37;13.00;99.90
53800;DHT22;39708;53.210;6.948;2022-09-12T00:16:04;13.20;99.90
53800;DHT22;39708;53.210;6.948;2022-09-12T00:18:30;13.00;99.90
53800;DHT22;39708;53.210;6.948;2022-09-12T00:20:56;13.00;99.90
53800;DHT22;39708;53.210;6.948;2022-09-12T00:23:22;13.00;99.90
53800;DHT22;39708;53.210;6.948;2022-09-12T00:25:48;13.00;99.90
53800;DHT22;39708;53.210;6.948;2022-09-12T00:28:15;13.00;99.90
53800;DHT22;39708;53.210;6.948;2022-09-12T00:30:45;13.00;99.90
53800;DHT22;39708;53.210;6.948;2022-09-12T00:33:12;13.60;99.90
53800;DHT22;39708;53.210;6.948;2022-09-12T00:35:45;13.10;99.90
53800;DHT22;39708;53.210;6.948;2022-09-12T00:38:12;12.80;99.90
53800;DHT22;39708;53.210;6.948;2022-09-12T00:40:39;12.90;99.90
53800;DHT22;39708;53.210;6.948;2022-09-12T00:43:05;12.80;99.90
53800;DHT22;39708;53.210;6.948;2022-09-12T00:45:35;12.70;99.90
53800;DHT22;39708;53.210;6.948;2022-09-12T00:48:02;12.70;99.90
53800;DHT22;39708;53.210;6.948;2022-09-12T00:50:29;12.80;99.90
53800;DHT22;39708;53.210;6.948;2022-09-12T00:53:03;12.60;99.90
53800;DHT22;39708;53.210;6.948;2022-09-12T00:55:35;12.50;99.90
53800;DHT22;39708;53.210;6.948;2022-09-12T00:58:17;12.80;99.90
53800;DHT22;39708;53.210;6.948;2022-09-12T01:00:45;12.70;99.90
53800;DHT22;39708;53.210;6.948;2022-09-12T01:03:13;12.40;99.90
53800;DHT22;39708;53.210;6.948;2022-09-12T01:05:43;12.40;99.90
53800;DHT22;39708;53.210;6.948;2022-09-12T01:08:12;12.40;99.90
53800;DHT22;39708;53.210;6.948;2022-09-12T01:10:39;12.40;99.90
53800;DHT22;39708;53.210;6.948;2022-09-12T01:13:07;12.40;99.90
53800;DHT22;39708;53.210;6.948;2022-09-12T01:15:35;12.50;99.90
53800;DHT22;39708;53.210;6.948;2022-09-12T01:18:29;12.30;99.90
53800;DHT22;39708;53.210;6.948;2022-09-12T01:21:01;12.30;99.90
53800;DHT22;39708;53.210;6.948;2022-09-12T01:43:03;12.30;99.90
53800;DHT22;39708;53.210;6.948;2022-09-12T01:45:42;12.30;99.90
53800;DHT22;39708;53.210;6.948;2022-09-12T01:48:23;12.20;99.90
53800;DHT22;39708;53.210;6.948;2022-09-12T01:51:38;12.20;99.90
53800;DHT22;39708;53.210;6.948;2022-09-12T01:53:48;12.10;99.90
53800;DHT22;39708;53.210;6.948;2022-09-12T01:56:23;12.40;99.90
53800;DHT22;39708;53.210;6.948;2022-09-12T01:58:53;12.10;99.90
53800;DHT22;39708;53.210;6.948;2022-09-12T02:01:23;12.00;99.90
53800;DHT22;39708;53.210;6.948;2022-09-12T02:04:02;12.00;99.90
53800;DHT22;39708;53.210;6.948;2022-09-12T02:06:38;12.00;99.90
53800;DHT22;39708;53.210;6.948;2022-09-12T02:09:11;12.00;99.90
53800;DHT22;39708;53.210;6.948;2022-09-12T02:11:40;12.00;99.90
53800;DHT22;39708;53.210;6.948;2022-09-12T02:14:23;12.00;99.90
53800;DHT22;39708;53.210;6.948;2022-09-12T02:16:51;12.00;99.90
53800;DHT22;39708;53.210;6.948;2022-09-12T02:19:21;12.00;99.90
53800;DHT22;39708;53.210;6.948;2022-09-12T02:21:52;12.00;99.90
53800;DHT22;39708;53.210;6.948;2022-09-12T02:24:19;12.00;99.90
53800;DHT22;39708;53.210;6.948;2022-09-12T02:26:49;12.00;99.90
53800;DHT22;39708;53.210;6.948;2022-09-12T02:29:17;12.00;99.90
53800;DHT22;39708;53.210;6.948;2022-09-12T02:31:53;12.30;99.90
53800;DHT22;39708;53.210;6.948;2022-09-12T02:37:07;12.00;99.90
53800;DHT22;39708;53.210;6.948;2022-09-12T02:39:35;11.90;99.90
53800;DHT22;39708;53.210;6.948;2022-09-12T02:42:01;12.40;99.90
53800;DHT22;39708;53.210;6.948;2022-09-12T02:44:30;11.80;99.90
53800;DHT22;39708;53.210;6.948;2022-09-12T02:47:08;11.80;99.90
53800;DHT22;39708;53.210;6.948;2022-09-12T02:49:35;11.80;99.90
53800;DHT22;39708;53.210;6.948;2022-09-12T02:52:01;12.00;99.90
53800;DHT22;39708;53.210;6.948;2022-09-12T02:54:27;11.60;99.90
53800;DHT22;39708;53.210;6.948;2022-09-12T02:56:53;11.90;99.90
53800;DHT22;39708;53.210;6.948;2022-09-12T02:59:21;11.50;99.90
53800;DHT22;39708;53.210;6.948;2022-09-12T03:02:05;11.50;99.90
53800;DHT22;39708;53.210;6.948;2022-09-12T03:13:14;11.40;99.90
53800;DHT22;39708;53.210;6.948;2022-09-12T03:15:58;11.40;99.90
53800;DHT22;39708;53.210;6.948;2022-09-12T03:29:14;11.40;99.90
53800;DHT22;39708;53.210;6.948;2022-09-12T03:31:58;11.40;99.90
53800;DHT22;39708;53.210;6.948;2022-09-12T03:34:25;11.50;99.90
53800;DHT22;39708;53.210;6.948;2022-09-12T03:36:52;12.00;99.90
53800;DHT22;39708;53.210;6.948;2022-09-12T03:39:20;11.60;99.90
53800;DHT22;39708;53.210;6.948;2022-09-12T03:41:49;11.60;99.90
53800;DHT22;39708;53.210;6.948;2022-09-12T03:44:15;11.70;99.90
53800;DHT22;39708;53.210;6.948;2022-09-12T03:46:41;11.70;99.90
53800;DHT22;39708;53.210;6.948;2022-09-12T03:49:06;11.60;99.90
53800;DHT22;39708;53.210;6.948;2022-09-12T03:51:32;11.60;99.90
53800;DHT22;39708;53.210;6.948;2022-09-12T03:53:58;11.80;99.90
53800;DHT22;39708;53.210;6.948;2022-09-12T03:56:23;11.80;99.90
53800;DHT22;39708;53.210;6.948;2022-09-12T03:58:49;11.50;99.90
53800;DHT22;39708;53.210;6.948;2022-09-12T04:01:16;11.50;99.90
53800;DHT22;39708;53.210;6.948;2022-09-12T04:03:44;12.00;99.90
53800;DHT22;39708;53.210;6.948;2022-09-12T04:06:11;11.60;99.90
53800;DHT22;39708;53.210;6.948;2022-09-12T04:08:38;11.50;99.90
53800;DHT22;39708;53.210;6.948;2022-09-12T04:11:05;11.80;99.90
53800;DHT22;39708;53.210;6.948;2022-09-12T04:13:31;11.60;99.90
53800;DHT22;39708;53.210;6.948;2022-09-12T04:15:58;11.60;99.90
53800;DHT22;39708;53.210;6.948;2022-09-12T04:18:25;11.70;99.90
53800;DHT22;39708;53.210;6.948;2022-09-12T04:20:51;12.50;99.90
53800;DHT22;39708;53.210;6.948;2022-09-12T04:23:16;11.70;99.90
53800;DHT22;39708;53.210;6.948;2022-09-12T04:25:43;11.80;99.90
53800;DHT22;39708;53.210;6.948;2022-09-12T04:28:09;11.80;99.90
53800;DHT22;39708;53.210;6.948;2022-09-12T04:30:34;12.00;99.90
53800;DHT22;39708;53.210;6.948;2022-09-12T04:33:00;11.80;99.90
53800;DHT22;39708;53.210;6.948;2022-09-12T04:35:25;11.80;99.90
53800;DHT22;39708;53.210;6.948;2022-09-12T04:37:52;11.80;99.90
53800;DHT22;39708;53.210;6.948;2022-09-12T04:40:17;12.30;99.90
53800;DHT22;39708;53.210;6.948;2022-09-12T04:42:43;11.80;99.90
53800;DHT22;39708;53.210;6.948;2022-09-12T04:45:09;12.00;99.90
53800;DHT22;39708;53.210;6.948;2022-09-12T04:47:35;11.90;99.90
53800;DHT22;39708;53.210;6.948;2022-09-12T04:50:00;11.90;99.90
53800;DHT22;39708;53.210;6.948;2022-09-12T04:52:26;12.10;99.90
53800;DHT22;39708;53.210;6.948;2022-09-12T04:54:51;11.90;99.90
53800;DHT22;39708;53.210;6.948;2022-09-12T04:57:17;12.00;99.90
53800;DHT22;39708;53.210;6.948;2022-09-12T04:59:43;12.00;99.90
53800;DHT22;39708;53.210;6.948;2022-09-12T05:02:08;12.00;99.90
53800;DHT22;39708;53.210;6.948;2022-09-12T05:04:34;12.20;99.90
53800;DHT22;39708;53.210;6.948;2022-09-12T05:07:00;12.00;99.90
53800;DHT22;39708;53.210;6.948;2022-09-12T05:09:26;12.00;99.90
53800;DHT22;39708;53.210;6.948;2022-09-12T05:11:51;12.10;99.90
53800;DHT22;39708;53.210;6.948;2022-09-12T05:14:17;12.20;99.90
53800;DHT22;39708;53.210;6.948;2022-09-12T05:16:43;12.50;99.90
53800;DHT22;39708;53.210;6.948;2022-09-12T05:19:10;12.20;99.90
53800;DHT22;39708;53.210;6.948;2022-09-12T05:21:36;12.30;99.90
53800;DHT22;39708;53.210;6.948;2022-09-12T05:24:03;12.50;99.90
53800;DHT22;39708;53.210;6.948;2022-09-12T05:26:30;12.40;99.90
53800;DHT22;39708;53.210;6.948;2022-09-12T05:28:56;12.40;99.90
53800;DHT22;39708;53.210;6.948;2022-09-12T05:31:26;12.70;99.90
53800;DHT22;39708;53.210;6.948;2022-09-12T05:33:53;12.60;99.90
53800;DHT22;39708;53.210;6.948;2022-09-12T05:36:27;12.70;99.90
53800;DHT22;39708;53.210;6.948;2022-09-12T05:38:57;12.80;99.90
53800;DHT22;39708;53.210;6.948;2022-09-12T05:41:29;12.80;99.90
53800;DHT22;39708;53.210;6.948;2022-09-12T05:44:00;12.90;99.90
53800;DHT22;39708;53.210;6.948;2022-09-12T05:46:31;12.90;99.90
53800;DHT22;39708;53.210;6.948;2022-09-12T05:49:02;12.90;99.90
53800;DHT22;39708;53.210;6.948;2022-09-12T05:51:32;13.00;99.90
53800;DHT22;39708;53.210;6.948;2022-09-12T05:53:59;13.10;99.90
53800;DHT22;39708;53.210;6.948;2022-09-12T05:56:27;13.20;99.90
53800;DHT22;39708;53.210;6.948;2022-09-12T05:58:58;13.40;99.90
53800;DHT22;39708;53.210;6.948;2022-09-12T06:01:25;13.30;99.90
53800;DHT22;39708;53.210;6.948;2022-09-12T06:03:53;13.40;99.90
53800;DHT22;39708;53.210;6.948;2022-09-12T06:06:22;13.50;99.90
53800;DHT22;39708;53.210;6.948;2022-09-12T06:08:50;13.60;99.90
53800;DHT22;39708;53.210;6.948;2022-09-12T06:11:19;13.50;99.90
53800;DHT22;39708;53.210;6.948;2022-09-12T06:13:45;13.50;99.90
53800;DHT22;39708;53.210;6.948;2022-09-12T06:16:15;13.60;99.90
53800;DHT22;39708;53.210;6.948;2022-09-12T06:18:46;13.60;99.90
53800;DHT22;39708;53.210;6.948;2022-09-12T06:21:12;13.70;99.90
53800;DHT22;39708;53.210;6.948;2022-09-12T06:23:39;13.70;99.90
53800;DHT22;39708;53.210;6.948;2022-09-12T06:26:07;13.80;99.90
53800;DHT22;39708;53.210;6.948;2022-09-12T06:28:34;13.80;99.90
53800;DHT22;39708;53.210;6.948;2022-09-12T06:31:06;13.70;99.90
53800;DHT22;39708;53.210;6.948;2022-09-12T06:33:36;13.80;99.90
53800;DHT22;39708;53.210;6.948;2022-09-12T06:36:04;13.80;99.90
53800;DHT22;39708;53.210;6.948;2022-09-12T06:38:31;13.90;99.90
53800;DHT22;39708;53.210;6.948;2022-09-12T06:40:56;14.00;99.90
53800;DHT22;39708;53.210;6.948;2022-09-12T06:43:22;14.00;99.90
53800;DHT22;39708;53.210;6.948;2022-09-12T06:45:49;14.00;99.90
53800;DHT22;39708;53.210;6.948;2022-09-12T06:48:15;14.10;99.90
53800;DHT22;39708;53.210;6.948;2022-09-12T06:50:41;14.20;99.90
53800;DHT22;39708;53.210;6.948;2022-09-12T06:53:06;14.20;99.90
53800;DHT22;39708;53.210;6.948;2022-09-12T06:55:32;14.30;99.90
53800;DHT22;39708;53.210;6.948;2022-09-12T06:57:58;14.80;99.90
53800;DHT22;39708;53.210;6.948;2022-09-12T07:00:24;14.40;99.90
53800;DHT22;39708;53.210;6.948;2022-09-12T07:02:53;14.40;99.90
53800;DHT22;39708;53.210;6.948;2022-09-12T07:05:20;14.50;99.90
53800;DHT22;39708;53.210;6.948;2022-09-12T07:07:46;14.50;99.90
53800;DHT22;39708;53.210;6.948;2022-09-12T07:10:12;14.60;99.90
53800;DHT22;39708;53.210;6.948;2022-09-12T07:12:37;14.60;99.90
53800;DHT22;39708;53.210;6.948;2022-09-12T07:15:03;15.00;99.90
53800;DHT22;39708;53.210;6.948;2022-09-12T07:17:29;14.80;99.90
53800;DHT22;39708;53.210;6.948;2022-09-12T07:19:55;14.80;99.90
53800;DHT22;39708;53.210;6.948;2022-09-12T07:22:20;14.90;99.90
53800;DHT22;39708;53.210;6.948;2022-09-12T07:24:46;14.90;99.90
53800;DHT22;39708;53.210;6.948;2022-09-12T07:27:12;14.90;99.90
53800;DHT22;39708;53.210;6.948;2022-09-12T07:29:37;14.90;99.90
53800;DHT22;39708;53.210;6.948;2022-09-12T07:32:04;15.00;99.90
53800;DHT22;39708;53.210;6.948;2022-09-12T07:34:30;15.00;99.90
53800;DHT22;39708;53.210;6.948;2022-09-12T07:36:55;15.10;99.90
53800;DHT22;39708;53.210;6.948;2022-09-12T07:39:21;15.20;99.90
53800;DHT22;39708;53.210;6.948;2022-09-12T07:41:47;15.20;99.90
53800;DHT22;39708;53.210;6.948;2022-09-12T07:44:12;15.20;99.90
53800;DHT22;39708;53.210;6.948;2022-09-12T07:46:38;15.30;99.90
53800;DHT22;39708;53.210;6.948;2022-09-12T07:49:04;15.50;99.90
53800;DHT22;39708;53.210;6.948;2022-09-12T07:51:30;15.40;99.90
53800;DHT22;39708;53.210;6.948;2022-09-12T07:53:56;15.50;99.90
53800;DHT22;39708;53.210;6.948;2022-09-12T07:56:23;15.70;99.90
53800;DHT22;39708;53.210;6.948;2022-09-12T07:58:48;15.70;99.90
53800;DHT22;39708;53.210;6.948;2022-09-12T08:01:17;15.70;99.90
53800;DHT22;39708;53.210;6.948;2022-09-12T08:03:44;15.90;99.90
53800;DHT22;39708;53.210;6.948;2022-09-12T08:06:13;15.90;99.90
53800;DHT22;39708;53.210;6.948;2022-09-12T08:08:40;15.90;99.90
53800;DHT22;39708;53.210;6.948;2022-09-12T08:11:08;16.00;99.90
53800;DHT22;39708;53.210;6.948;2022-09-12T08:13:36;16.20;99.90
53800;DHT22;39708;53.210;6.948;2022-09-12T08:16:05;16.10;99.90
53800;DHT22;39708;53.210;6.948;2022-09-12T08:18:31;16.10;99.90
53800;DHT22;39708;53.210;6.948;2022-09-12T08:21:05;16.20;99.90
53800;DHT22;39708;53.210;6.948;2022-09-12T08:23:31;16.20;99.90
53800;DHT22;39708;53.210;6.948;2022-09-12T08:25:58;16.50;99.90
53800;DHT22;39708;53.210;6.948;2022-09-12T08:28:25;16.20;99.90
53800;DHT22;39708;53.210;6.948;2022-09-12T08:30:52;16.30;99.90
53800;DHT22;39708;53.210;6.948;2022-09-12T08:33:18;16.30;99.90
53800;DHT22;39708;53.210;6.948;2022-09-12T08:35:44;16.40;99.90
53800;DHT22;39708;53.210;6.948;2022-09-12T08:38:10;16.70;99.90
53800;DHT22;39708;53.210;6.948;2022-09-12T08:41:13;16.70;99.90
53800;DHT22;39708;53.210;6.948;2022-09-12T08:44:07;16.80;99.90
53800;DHT22;39708;53.210;6.948;2022-09-12T08:46:39;16.80;99.90
53800;DHT22;39708;53.210;6.948;2022-09-12T08:49:12;16.90;99.90
53800;DHT22;39708;53.210;6.948;2022-09-12T08:51:40;17.00;99.90
53800;DHT22;39708;53.210;6.948;2022-09-12T08:54:23;17.00;99.90
53800;DHT22;39708;53.210;6.948;2022-09-12T08:56:49;17.00;99.90
53800;DHT22;39708;53.210;6.948;2022-09-12T08:59:15;17.00;99.90
53800;DHT22;39708;53.210;6.948;2022-09-12T09:01:43;17.00;99.90
53800;DHT22;39708;53.210;6.948;2022-09-12T09:04:30;17.10;99.90
53800;DHT22;39708;53.210;6.948;2022-09-12T09:07:19;17.20;99.90
53800;DHT22;39708;53.210;6.948;2022-09-12T09:20:45;17.60;99.90
53800;DHT22;39708;53.210;6.948;2022-09-12T09:23:22;17.60;99.90
53800;DHT22;39708;53.210;6.948;2022-09-12T09:26:03;17.70;99.90
53800;DHT22;39708;53.210;6.948;2022-09-12T09:31:16;17.90;99.90
53800;DHT22;39708;53.210;6.948;2022-09-12T09:33:42;17.90;99.90
53800;DHT22;39708;53.210;6.948;2022-09-12T09:39:11;18.10;99.90
53800;DHT22;39708;53.210;6.948;2022-09-12T09:42:15;18.10;99.90
53800;DHT22;39708;53.210;6.948;2022-09-12T09:44:42;18.10;99.90
53800;DHT22;39708;53.210;6.948;2022-09-12T09:47:11;18.10;99.90
53800;DHT22;39708;53.210;6.948;2022-09-12T09:49:37;18.20;99.90
53800;DHT22;39708;53.210;6.948;2022-09-12T09:52:06;18.20;99.90
53800;DHT22;39708;53.210;6.948;2022-09-12T09:54:42;18.20;99.90
53800;DHT22;39708;53.210;6.948;2022-09-12T10:05:48;18.60;99.90
53800;DHT22;39708;53.210;6.948;2022-09-12T10:08:23;18.90;99.90
53800;DHT22;39708;53.210;6.948;2022-09-12T10:13:53;19.40;99.90
53800;DHT22;39708;53.210;6.948;2022-09-12T10:16:27;19.60;99.90
53800;DHT22;39708;53.210;6.948;2022-09-12T10:18:55;19.70;99.90
53800;DHT22;39708;53.210;6.948;2022-09-12T10:21:26;19.90;99.90
53800;DHT22;39708;53.210;6.948;2022-09-12T10:24:00;20.00;99.90
53800;DHT22;39708;53.210;6.948;2022-09-12T10:26:33;20.20;99.90
53800;DHT22;39708;53.210;6.948;2022-09-12T10:29:02;20.10;99.90
53800;DHT22;39708;53.210;6.948;2022-09-12T10:31:40;20.00;99.90
53800;DHT22;39708;53.210;6.948;2022-09-12T10:34:20;20.10;99.90
53800;DHT22;39708;53.210;6.948;2022-09-12T10:36:47;20.40;99.90
53800;DHT22;39708;53.210;6.948;2022-09-12T10:39:17;20.60;99.90
53800;DHT22;39708;53.210;6.948;2022-09-12T10:41:44;20.90;99.90
53800;DHT22;39708;53.210;6.948;2022-09-12T10:44:16;20.90;99.90
53800;DHT22;39708;53.210;6.948;2022-09-12T10:46:42;21.10;99.90
53800;DHT22;39708;53.210;6.948;2022-09-12T10:49:29;21.10;99.90
53800;DHT22;39708;53.210;6.948;2022-09-12T10:51:57;21.10;99.90
53800;DHT22;39708;53.210;6.948;2022-09-12T10:54:39;21.10;99.90
53800;DHT22;39708;53.210;6.948;2022-09-12T10:57:23;21.00;99.90
53800;DHT22;39708;53.210;6.948;2022-09-12T11:00:13;21.10;99.90
53800;DHT22;39708;53.210;6.948;2022-09-12T11:03:38;21.00;99.90
53800;DHT22;39708;53.210;6.948;2022-09-12T11:05:50;20.90;99.90
53800;DHT22;39708;53.210;6.948;2022-09-12T11:11:57;21.00;99.90
53800;DHT22;39708;53.210;6.948;2022-09-12T11:31:15;21.50;99.90
53800;DHT22;39708;53.210;6.948;2022-09-12T11:33:51;21.60;99.90
53800;DHT22;39708;53.210;6.948;2022-09-12T11:41:33;21.70;99.90
53800;DHT22;39708;53.210;6.948;2022-09-12T11:44:13;21.80;99.90
53800;DHT22;39708;53.210;6.948;2022-09-12T11:46:42;21.80;99.90
53800;DHT22;39708;53.210;6.948;2022-09-12T11:49:14;21.80;99.90
53800;DHT22;39708;53.210;6.948;2022-09-12T11:52:05;21.80;99.90
53800;DHT22;39708;53.210;6.948;2022-09-12T11:57:39;22.00;99.90
53800;DHT22;39708;53.210;6.948;2022-09-12T12:02:58;22.10;99.90
53800;DHT22;39708;53.210;6.948;2022-09-12T12:07:59;22.30;99.90
53800;DHT22;39708;53.210;6.948;2022-09-12T12:12:55;22.50;99.90
53800;DHT22;39708;53.210;6.948;2022-09-12T12:15:23;22.50;99.90
53800;DHT22;39708;53.210;6.948;2022-09-12T12:18:13;22.50;99.90
53800;DHT22;39708;53.210;6.948;2022-09-12T12:20:40;22.60;99.90
53800;DHT22;39708;53.210;6.948;2022-09-12T12:23:06;22.50;99.90
53800;DHT22;39708;53.210;6.948;2022-09-12T12:25:39;22.50;99.90
53800;DHT22;39708;53.210;6.948;2022-09-12T12:28:05;22.50;99.90
53800;DHT22;39708;53.210;6.948;2022-09-12T12:38:35;22.90;99.90
53800;DHT22;39708;53.210;6.948;2022-09-12T12:43:52;23.10;99.90
53800;DHT22;39708;53.210;6.948;2022-09-12T12:46:23;23.10;99.90
53800;DHT22;39708;53.210;6.948;2022-09-12T12:48:57;23.10;99.90
53800;DHT22;39708;53.210;6.948;2022-09-12T12:51:40;23.30;99.90
53800;DHT22;39708;53.210;6.948;2022-09-12T12:54:28;23.40;99.90
53800;DHT22;39708;53.210;6.948;2022-09-12T12:57:21;23.50;99.90
53800;DHT22;39708;53.210;6.948;2022-09-12T12:59:54;23.50;99.90
53800;DHT22;39708;53.210;6.948;2022-09-12T13:02:34;23.50;99.90
53800;DHT22;39708;53.210;6.948;2022-09-12T13:05:05;23.50;99.90
53800;DHT22;39708;53.210;6.948;2022-09-12T13:07:37;23.30;99.90
53800;DHT22;39708;53.210;6.948;2022-09-12T13:10:06;23.30;99.90
53800;DHT22;39708;53.210;6.948;2022-09-12T13:12:42;23.30;99.90
53800;DHT22;39708;53.210;6.948;2022-09-12T13:21:15;23.10;99.90
53800;DHT22;39708;53.210;6.948;2022-09-12T13:23:42;23.10;99.90
53800;DHT22;39708;53.210;6.948;2022-09-12T13:26:19;23.10;99.90
53800;DHT22;39708;53.210;6.948;2022-09-12T13:28:46;23.10;99.90
53800;DHT22;39708;53.210;6.948;2022-09-12T13:31:23;23.10;99.90
53800;DHT22;39708;53.210;6.948;2022-09-12T13:33:52;23.20;99.90
53800;DHT22;39708;53.210;6.948;2022-09-12T13:36:50;23.20;99.90
53800;DHT22;39708;53.210;6.948;2022-09-12T13:44:49;23.60;99.90
53800;DHT22;39708;53.210;6.948;2022-09-12T13:50:24;23.70;99.90
53800;DHT22;39708;53.210;6.948;2022-09-12T13:52:56;23.80;99.30
53800;DHT22;39708;53.210;6.948;2022-09-12T13:55:29;23.90;99.90
53800;DHT22;39708;53.210;6.948;2022-09-12T13:57:58;23.90;98.20
53800;DHT22;39708;53.210;6.948;2022-09-12T14:00:25;24.00;99.90
53800;DHT22;39708;53.210;6.948;2022-09-12T14:02:52;23.90;99.90
53800;DHT22;39708;53.210;6.948;2022-09-12T14:05:39;23.90;99.90
53800;DHT22;39708;53.210;6.948;2022-09-12T14:08:11;23.90;99.90
53800;DHT22;39708;53.210;6.948;2022-09-12T14:10:43;23.90;99.90
53800;DHT22;39708;53.210;6.948;2022-09-12T14:13:14;23.80;99.90
53800;DHT22;39708;53.210;6.948;2022-09-12T14:15:45;23.90;99.90
53800;DHT22;39708;53.210;6.948;2022-09-12T14:18:32;23.90;97.90
53800;DHT22;39708;53.210;6.948;2022-09-12T14:21:50;24.00;99.90
53800;DHT22;39708;53.210;6.948;2022-09-12T14:23:50;24.10;99.90
53800;DHT22;39708;53.210;6.948;2022-09-12T14:26:16;24.10;99.90
53800;DHT22;39708;53.210;6.948;2022-09-12T14:28:43;24.00;98.90
53800;DHT22;39708;53.210;6.948;2022-09-12T14:33:47;23.90;96.00
53800;DHT22;39708;53.210;6.948;2022-09-12T14:36:29;23.90;99.90
53800;DHT22;39708;53.210;6.948;2022-09-12T14:38:59;23.70;98.90
53800;DHT22;39708;53.210;6.948;2022-09-12T14:41:31;23.70;98.50
53800;DHT22;39708;53.210;6.948;2022-09-12T14:43:59;23.70;99.90
53800;DHT22;39708;53.210;6.948;2022-09-12T14:56:59;23.60;99.80
53800;DHT22;39708;53.210;6.948;2022-09-12T15:04:54;23.10;99.90
53800;DHT22;39708;53.210;6.948;2022-09-12T15:07:59;23.00;99.90
53800;DHT22;39708;53.210;6.948;2022-09-12T15:10:34;23.00;99.90
53800;DHT22;39708;53.210;6.948;2022-09-12T15:15:40;23.00;99.90
53800;DHT22;39708;53.210;6.948;2022-09-12T15:18:06;23.20;99.90
53800;DHT22;39708;53.210;6.948;2022-09-12T15:20:34;23.20;99.90
53800;DHT22;39708;53.210;6.948;2022-09-12T15:23:00;23.10;99.90
53800;DHT22;39708;53.210;6.948;2022-09-12T15:25:26;23.20;99.90
53800;DHT22;39708;53.210;6.948;2022-09-12T15:27:52;23.20;99.90
53800;DHT22;39708;53.210;6.948;2022-09-12T15:30:18;23.20;99.90
53800;DHT22;39708;53.210;6.948;2022-09-12T15:32:44;23.20;99.90
53800;DHT22;39708;53.210;6.948;2022-09-12T15:35:22;23.20;99.90
53800;DHT22;39708;53.210;6.948;2022-09-12T15:37:49;23.20;99.90
53800;DHT22;39708;53.210;6.948;2022-09-12T15:40:16;23.20;99.90
53800;DHT22;39708;53.210;6.948;2022-09-12T15:42:42;23.20;99.90
53800;DHT22;39708;53.210;6.948;2022-09-12T15:45:17;23.20;99.90
53800;DHT22;39708;53.210;6.948;2022-09-12T15:47:44;23.20;99.90
53800;DHT22;39708;53.210;6.948;2022-09-12T15:50:10;23.20;99.90
53800;DHT22;39708;53.210;6.948;2022-09-12T15:52:36;23.10;99.90
53800;DHT22;39708;53.210;6.948;2022-09-12T15:55:03;23.00;99.90
53800;DHT22;39708;53.210;6.948;2022-09-12T15:57:29;22.90;99.90
53800;DHT22;39708;53.210;6.948;2022-09-12T15:59:54;22.80;99.90
53800;DHT22;39708;53.210;6.948;2022-09-12T16:02:20;22.80;99.90
53800;DHT22;39708;53.210;6.948;2022-09-12T16:04:46;22.70;99.90
53800;DHT22;39708;53.210;6.948;2022-09-12T16:07:12;22.60;99.90
53800;DHT22;39708;53.210;6.948;2022-09-12T16:09:38;22.50;99.90
53800;DHT22;39708;53.210;6.948;2022-09-12T16:12:04;22.50;99.90
53800;DHT22;39708;53.210;6.948;2022-09-12T16:14:30;22.50;99.90
53800;DHT22;39708;53.210;6.948;2022-09-12T16:16:56;22.40;99.90
53800;DHT22;39708;53.210;6.948;2022-09-12T16:19:22;22.40;99.90
53800;DHT22;39708;53.210;6.948;2022-09-12T16:21:49;22.30;99.90
53800;DHT22;39708;53.210;6.948;2022-09-12T16:24:15;22.30;99.90
53800;DHT22;39708;53.210;6.948;2022-09-12T16:26:40;22.30;99.90
53800;DHT22;39708;53.210;6.948;2022-09-12T16:29:06;22.20;99.90
53800;DHT22;39708;53.210;6.948;2022-09-12T16:31:33;22.20;99.90
53800;DHT22;39708;53.210;6.948;2022-09-12T16:33:58;22.20;99.90
53800;DHT22;39708;53.210;6.948;2022-09-12T16:36:24;22.10;99.90
53800;DHT22;39708;53.210;6.948;2022-09-12T16:38:52;22.10;99.90
53800;DHT22;39708;53.210;6.948;2022-09-12T16:41:21;22.00;99.90
53800;DHT22;39708;53.210;6.948;2022-09-12T16:43:47;21.90;99.90
53800;DHT22;39708;53.210;6.948;2022-09-12T16:46:18;21.80;99.90
53800;DHT22;39708;53.210;6.948;2022-09-12T16:48:48;21.70;99.90
53800;DHT22;39708;53.210;6.948;2022-09-12T16:51:17;21.60;99.90
53800;DHT22;39708;53.210;6.948;2022-09-12T16:53:44;21.50;99.90
53800;DHT22;39708;53.210;6.948;2022-09-12T16:56:10;21.30;99.90
53800;DHT22;39708;53.210;6.948;2022-09-12T16:58:38;21.20;99.90
53800;DHT22;39708;53.210;6.948;2022-09-12T17:01:11;21.10;99.90
53800;DHT22;39708;53.210;6.948;2022-09-12T17:03:38;21.00;99.90
53800;DHT22;39708;53.210;6.948;2022-09-12T17:06:06;21.00;99.90
53800;DHT22;39708;53.210;6.948;2022-09-12T17:08:33;20.90;99.90
53800;DHT22;39708;53.210;6.948;2022-09-12T17:11:00;20.80;99.90
53800;DHT22;39708;53.210;6.948;2022-09-12T17:13:27;20.70;99.90
53800;DHT22;39708;53.210;6.948;2022-09-12T17:15:52;20.70;99.90
53800;DHT22;39708;53.210;6.948;2022-09-12T17:18:18;20.70;99.90
53800;DHT22;39708;53.210;6.948;2022-09-12T17:20:44;20.70;99.90
53800;DHT22;39708;53.210;6.948;2022-09-12T17:23:09;20.70;99.90
53800;DHT22;39708;53.210;6.948;2022-09-12T17:25:35;20.60;99.90
53800;DHT22;39708;53.210;6.948;2022-09-12T17:28:01;20.60;99.90
53800;DHT22;39708;53.210;6.948;2022-09-12T17:30:33;20.50;99.90
53800;DHT22;39708;53.210;6.948;2022-09-12T17:32:59;20.40;99.90
53800;DHT22;39708;53.210;6.948;2022-09-12T17:35:25;20.40;99.90
53800;DHT22;39708;53.210;6.948;2022-09-12T17:37:51;20.30;99.90
53800;DHT22;39708;53.210;6.948;2022-09-12T17:40:17;20.10;99.90
53800;DHT22;39708;53.210;6.948;2022-09-12T17:42:42;20.10;99.90
53800;DHT22;39708;53.210;6.948;2022-09-12T17:45:09;20.00;99.90
53800;DHT22;39708;53.210;6.948;2022-09-12T17:47:37;20.00;99.90
53800;DHT22;39708;53.210;6.948;2022-09-12T17:50:04;19.80;99.90
53800;DHT22;39708;53.210;6.948;2022-09-12T17:52:30;19.70;99.90
53800;DHT22;39708;53.210;6.948;2022-09-12T17:54:55;19.20;99.90
53800;DHT22;39708;53.210;6.948;2022-09-12T17:57:21;18.90;99.90
53800;DHT22;39708;53.210;6.948;2022-09-12T17:59:47;18.80;99.90
53800;DHT22;39708;53.210;6.948;2022-09-12T18:02:12;18.40;99.90
53800;DHT22;39708;53.210;6.948;2022-09-12T18:04:39;18.40;99.90
53800;DHT22;39708;53.210;6.948;2022-09-12T18:07:06;18.20;99.90
53800;DHT22;39708;53.210;6.948;2022-09-12T18:09:32;18.10;99.90
53800;DHT22;39708;53.210;6.948;2022-09-12T18:11:58;18.10;99.90
53800;DHT22;39708;53.210;6.948;2022-09-12T18:14:24;18.00;99.90
53800;DHT22;39708;53.210;6.948;2022-09-12T18:16:53;17.90;99.90
53800;DHT22;39708;53.210;6.948;2022-09-12T18:19:18;18.10;99.90